createdAt,value
2019-01-20T00:01:03.858Z,92074.87
2019-01-20T00:03:53.990Z,92074.80
2019-01-20T00:06:43.759Z,92077.16
2019-01-20T00:09:33.173Z,92079.73
2019-01-20T00:12:22.993Z,92077.48
2019-01-20T00:15:12.565Z,92072.65
2019-01-20T00:18:01.991Z,92075.33
2019-01-20T00:20:51.468Z,92075.48
2019-01-20T00:23:40.137Z,92077.23
2019-01-20T00:26:29.562Z,92077.19
2019-01-20T00:29:19.077Z,92076.89
2019-01-20T00:32:09.421Z,92073.53
2019-01-20T00:34:58.826Z,92084.81
2019-01-20T00:37:48.668Z,92082.56
2019-01-20T00:40:37.919Z,92080.37
2019-01-20T00:43:27.417Z,92075.22
2019-01-20T00:46:18.068Z,92077.77
2019-01-20T00:49:08.403Z,92079.76
2019-01-20T00:51:58.676Z,92076.92
2019-01-20T00:54:48.934Z,92082.88
2019-01-20T00:57:39.411Z,92078.41
2019-01-20T01:00:31.750Z,92076.84
2019-01-20T01:03:20.675Z,92074.64
2019-01-20T01:06:10.629Z,92076.95
2019-01-20T01:09:00.205Z,92073.29
2019-01-20T01:11:49.875Z,92075.94
2019-01-20T01:14:38.821Z,92063.34
2019-01-20T01:17:28.507Z,92069.58
2019-01-20T01:20:19.384Z,92067.94
2019-01-20T01:23:08.981Z,92069.50
2019-01-20T01:25:58.569Z,92070.00
2019-01-20T01:28:48.239Z,92063.91
2019-01-20T01:31:37.731Z,92059.75
2019-01-20T01:34:26.768Z,92063.94
2019-01-20T01:37:16.425Z,92060.59
2019-01-20T01:40:08.279Z,92056.91
2019-01-20T01:42:57.134Z,92056.00
2019-01-20T01:45:47.205Z,92050.47
2019-01-20T01:48:37.179Z,92048.93
2019-01-20T01:51:26.239Z,92046.36
2019-01-20T01:54:16.068Z,92050.05
2019-01-20T01:57:05.220Z,92049.63
2019-01-20T01:59:54.621Z,92037.13
2019-01-20T02:02:43.661Z,92038.48
2019-01-20T02:05:33.452Z,92041.73
2019-01-20T02:08:22.581Z,92036.91
2019-01-20T02:11:12.717Z,92034.13
2019-01-20T02:14:03.014Z,92027.38
2019-01-20T02:16:52.378Z,92022.98
2019-01-20T02:19:42.078Z,92025.12
2019-01-20T02:22:32.050Z,92025.08
2019-01-20T02:25:21.746Z,92021.73
2019-01-20T02:28:11.312Z,92026.02
2019-01-20T02:31:08.860Z,92015.48
2019-01-20T02:33:57.943Z,92015.57
2019-01-20T02:36:46.917Z,92009.28
2019-01-20T02:39:36.748Z,92011.58
2019-01-20T02:42:26.342Z,92004.46
2019-01-20T02:45:16.413Z,91999.38
2019-01-20T02:48:06.074Z,92001.34
2019-01-20T02:50:55.817Z,92007.09
2019-01-20T02:53:45.252Z,92000.44
2019-01-20T02:56:35.999Z,91995.46
2019-01-20T02:59:25.954Z,91996.17
2019-01-20T03:02:16.931Z,91993.34
2019-01-20T03:05:08.401Z,91991.42
2019-01-20T03:07:58.092Z,91990.81
2019-01-20T03:11:21.870Z,91988.48
2019-01-20T03:14:11.462Z,91984.48
2019-01-20T03:17:01.097Z,91978.78
2019-01-20T03:19:51.174Z,91980.61
2019-01-20T03:22:40.516Z,91971.44
2019-01-20T03:25:30.318Z,91972.67
2019-01-20T03:28:19.934Z,91970.04
2019-01-20T03:31:09.315Z,91964.52
2019-01-20T03:33:59.821Z,91959.23
2019-01-20T03:36:50.114Z,91970.58
2019-01-20T03:39:39.399Z,91970.77
2019-01-20T03:42:29.687Z,91962.63
2019-01-20T03:45:19.714Z,91961.91
2019-01-20T03:48:08.819Z,91958.34
2019-01-20T03:51:00.273Z,91959.53
2019-01-20T03:53:50.064Z,91959.64
2019-01-20T03:56:39.361Z,91961.08
2019-01-20T03:59:29.137Z,91965.66
2019-01-20T04:02:20.960Z,91954.03
2019-01-20T04:05:10.965Z,91949.45
2019-01-20T04:08:00.591Z,91946.09
2019-01-20T04:10:53.865Z,91951.07
2019-01-20T04:13:43.291Z,91945.09
2019-01-20T04:16:32.928Z,91944.77
2019-01-20T04:19:22.977Z,91938.62
2019-01-20T04:22:13.607Z,91946.84
2019-01-20T04:25:02.648Z,91944.22
2019-01-20T04:27:52.306Z,91939.95
2019-01-20T04:30:42.693Z,91939.04
2019-01-20T04:33:31.641Z,91937.92
2019-01-20T04:36:21.323Z,91934.34
2019-01-20T04:39:11.433Z,91941.19
2019-01-20T04:42:02.010Z,91940.87
2019-01-20T04:44:51.689Z,91938.73
2019-01-20T04:47:41.470Z,91940.27
2019-01-20T04:50:30.351Z,91938.84
2019-01-20T04:53:21.167Z,91934.77
2019-01-20T04:56:10.905Z,91933.14
2019-01-20T04:59:00.284Z,91934.75
2019-01-20T05:01:49.631Z,91936.80
2019-01-20T05:04:39.560Z,91940.16
2019-01-20T05:07:29.395Z,91943.36
2019-01-20T05:10:19.284Z,91932.32
2019-01-20T05:13:08.928Z,91932.84
2019-01-20T05:15:58.467Z,91926.07
2019-01-20T05:18:47.840Z,91916.97
2019-01-20T05:21:40.368Z,91923.63
2019-01-20T05:24:29.396Z,91918.25
2019-01-20T05:27:18.876Z,91914.99
2019-01-20T05:30:11.727Z,91927.20
2019-01-20T05:33:01.054Z,91924.25
2019-01-20T05:35:53.295Z,91924.48
2019-01-20T05:38:42.750Z,91924.33
2019-01-20T05:41:32.284Z,91922.12
2019-01-20T05:44:21.694Z,91921.51
2019-01-20T05:47:11.350Z,91926.44
2019-01-20T05:50:01.845Z,91924.19
2019-01-20T05:52:51.704Z,91921.53
2019-01-20T05:55:41.458Z,91925.31
2019-01-20T05:58:30.376Z,91919.29
2019-01-20T06:01:19.846Z,91918.58
2019-01-20T06:04:09.692Z,91924.17
2019-01-20T06:06:59.312Z,91928.46
2019-01-20T06:09:49.117Z,91926.84
2019-01-20T06:12:38.739Z,91923.55
2019-01-20T06:15:28.586Z,91924.67
2019-01-20T06:18:17.591Z,91928.34
2019-01-20T06:21:07.128Z,91926.48
2019-01-20T06:23:56.996Z,91927.31
2019-01-20T06:26:46.429Z,91928.45
2019-01-20T06:29:35.822Z,91920.00
2019-01-20T06:32:25.404Z,91921.92
2019-01-20T06:35:14.446Z,91918.56
2019-01-20T06:38:04.167Z,91922.34
2019-01-20T06:40:53.967Z,91913.95
2019-01-20T06:43:43.856Z,91912.73
2019-01-20T06:46:34.248Z,91916.14
2019-01-20T06:49:24.990Z,91917.60
2019-01-20T06:52:17.870Z,91923.73
2019-01-20T06:55:08.366Z,91920.19
2019-01-20T06:57:58.367Z,91918.38
2019-01-20T07:00:49.311Z,91923.88
2019-01-20T07:03:39.213Z,91929.48
2019-01-20T07:06:28.448Z,91919.29
2019-01-20T07:09:17.860Z,91918.47
2019-01-20T07:12:07.163Z,91920.72
2019-01-20T07:14:57.069Z,91917.86
2019-01-20T07:17:46.489Z,91920.28
2019-01-20T07:20:37.723Z,91919.57
2019-01-20T07:23:27.718Z,91918.03
2019-01-20T07:26:17.116Z,91921.80
2019-01-20T07:29:06.893Z,91916.38
2019-01-20T07:31:56.757Z,91919.45
2019-01-20T07:34:46.362Z,91920.48
2019-01-20T07:37:35.705Z,91915.38
2019-01-20T07:40:25.254Z,91917.59
2019-01-20T07:43:17.068Z,91917.71
2019-01-20T07:46:06.752Z,91917.94
2019-01-20T07:48:56.569Z,91914.87
2019-01-20T07:51:46.237Z,91916.64
2019-01-20T07:54:35.408Z,91921.70
2019-01-20T07:57:25.103Z,91924.73
2019-01-20T08:00:17.283Z,91927.42
2019-01-20T08:03:06.970Z,91925.84
2019-01-20T08:05:56.888Z,91931.37
2019-01-20T08:08:47.037Z,91937.67
2019-01-20T08:11:36.288Z,91929.31
2019-01-20T08:14:26.707Z,91934.05
2019-01-20T08:17:15.450Z,91936.87
2019-01-20T08:20:05.481Z,91933.72
2019-01-20T08:22:55.423Z,91946.43
2019-01-20T08:25:44.908Z,91941.22
2019-01-20T08:28:34.549Z,91934.65
2019-01-20T08:31:23.427Z,91936.79
2019-01-20T08:34:13.594Z,91941.69
2019-01-20T08:37:04.369Z,91934.53
2019-01-20T08:39:53.764Z,91932.81
2019-01-20T08:42:43.515Z,91942.91
2019-01-20T08:46:28.194Z,91944.70
2019-01-20T08:49:17.241Z,91941.69
2019-01-20T08:52:06.229Z,91945.72
2019-01-20T08:54:55.295Z,91941.60
2019-01-20T08:57:45.547Z,91940.81
2019-01-20T09:00:35.867Z,91940.71
2019-01-20T09:03:25.421Z,91938.80
2019-01-20T09:06:15.366Z,91941.55
2019-01-20T09:09:10.043Z,91932.92
2019-01-20T09:11:59.737Z,91937.77
2019-01-20T09:14:53.077Z,91935.11
2019-01-20T09:17:45.002Z,91940.92
2019-01-20T09:20:36.118Z,91939.48
2019-01-20T09:23:25.223Z,91936.92
2019-01-20T09:26:15.020Z,91932.41
2019-01-20T09:29:04.881Z,91931.84
2019-01-20T09:31:59.535Z,91933.31
2019-01-20T09:34:49.474Z,91930.52
2019-01-20T09:37:39.657Z,91921.97
2019-01-20T09:40:29.934Z,91920.53
2019-01-20T09:43:19.586Z,91909.36
2019-01-20T09:46:43.989Z,91898.48
2019-01-20T09:49:34.207Z,91908.05
2019-01-20T09:52:26.001Z,91912.35
2019-01-20T09:55:17.248Z,91910.53
2019-01-20T09:58:07.715Z,91911.86
2019-01-20T10:00:57.824Z,91908.86
2019-01-20T10:03:47.212Z,91900.20
2019-01-20T10:06:39.035Z,91887.71
2019-01-20T10:09:28.556Z,91888.59
2019-01-20T10:12:17.627Z,91893.59
2019-01-20T10:15:09.443Z,91887.08
2019-01-20T10:17:58.998Z,91890.20
2019-01-20T10:20:48.676Z,91890.72
2019-01-20T10:23:39.584Z,91879.30
2019-01-20T10:26:40.090Z,91872.78
2019-01-20T10:29:29.727Z,91869.20
2019-01-20T10:32:21.008Z,91872.13
2019-01-20T10:35:11.527Z,91870.16
2019-01-20T10:38:06.489Z,91860.08
2019-01-20T10:40:56.973Z,91858.39
2019-01-20T10:43:46.246Z,91856.33
2019-01-20T10:46:36.172Z,91850.70
2019-01-20T10:49:25.913Z,91846.44
2019-01-20T10:52:16.281Z,91836.39
2019-01-20T10:55:06.994Z,91838.13
2019-01-20T10:57:57.057Z,91828.14
2019-01-20T11:00:46.358Z,91821.36
2019-01-20T11:03:36.541Z,91810.95
2019-01-20T11:06:26.569Z,91814.59
2019-01-20T11:09:16.317Z,91822.69
2019-01-20T11:12:06.985Z,91815.73
2019-01-20T11:14:55.940Z,91818.12
2019-01-20T11:17:45.250Z,91808.69
2019-01-20T11:20:34.756Z,91803.14
2019-01-20T11:23:24.831Z,91806.70
2019-01-20T11:26:14.655Z,91800.33
2019-01-20T11:29:05.025Z,91800.39
2019-01-20T11:31:55.182Z,91798.75
2019-01-20T11:34:45.438Z,91793.18
2019-01-20T11:37:45.307Z,91798.38
2019-01-20T11:40:38.700Z,91796.80
2019-01-20T11:43:28.536Z,91791.33
2019-01-20T11:46:40.444Z,91792.72
2019-01-20T11:49:30.913Z,91792.98
2019-01-20T11:52:20.613Z,91785.94
2019-01-20T11:55:15.375Z,91774.43
2019-01-20T11:58:07.074Z,91774.12
2019-01-20T12:00:57.497Z,91774.80
2019-01-20T12:03:47.454Z,91768.31
2019-01-20T12:06:40.318Z,91770.98
2019-01-20T12:09:29.422Z,91772.34
2019-01-20T12:12:19.052Z,91764.27
2019-01-20T12:15:10.994Z,91772.47
2019-01-20T12:18:00.721Z,91776.49
2019-01-20T12:20:51.322Z,91772.94
2019-01-20T12:23:44.785Z,91769.37
2019-01-20T12:27:01.694Z,91769.66
2019-01-20T12:29:53.247Z,91768.98
2019-01-20T12:32:43.383Z,91766.14
2019-01-20T12:35:32.967Z,91767.07
2019-01-20T12:38:22.440Z,91762.86
2019-01-20T12:41:12.661Z,91761.90
2019-01-20T12:44:02.707Z,91759.73
2019-01-20T12:46:57.244Z,91752.25
2019-01-20T12:49:48.341Z,91754.85
2019-01-20T12:52:38.520Z,91752.97
2019-01-20T12:55:30.113Z,91746.43
2019-01-20T12:58:23.905Z,91744.94
2019-01-20T13:01:14.631Z,91748.20
2019-01-20T13:04:06.179Z,91742.72
2019-01-20T13:06:44.185Z,91742.83
2019-01-20T13:09:15.307Z,91741.20
2019-01-20T13:11:46.655Z,91747.23
2019-01-20T13:14:17.848Z,91751.48
2019-01-20T13:16:48.898Z,91742.01
2019-01-20T13:19:19.925Z,91748.16
2019-01-20T13:21:51.694Z,91744.23
2019-01-20T13:24:22.742Z,91742.99
2019-01-20T13:27:01.181Z,91744.02
2019-01-20T13:29:35.138Z,91747.23
2019-01-20T13:32:06.257Z,91742.70
2019-01-20T13:34:37.515Z,91744.04
2019-01-20T13:37:08.870Z,91749.08
2019-01-20T13:39:44.575Z,91746.23
2019-01-20T13:42:17.994Z,91743.95
2019-01-20T13:44:49.145Z,91746.99
2019-01-20T13:47:21.544Z,91739.77
2019-01-20T13:49:52.586Z,91738.72
2019-01-20T13:52:23.939Z,91740.69
2019-01-20T13:54:55.289Z,91738.39
2019-01-20T13:57:27.640Z,91740.09
2019-01-20T13:59:59.058Z,91736.27
2019-01-20T14:02:30.182Z,91735.20
2019-01-20T14:05:31.065Z,91739.72
2019-01-20T14:08:03.484Z,91743.77
2019-01-20T14:10:34.737Z,91744.16
2019-01-20T14:13:06.417Z,91745.72
2019-01-20T14:15:37.637Z,91744.32
2019-01-20T14:18:08.653Z,91747.48
2019-01-20T14:20:39.669Z,91744.70
2019-01-20T14:23:10.735Z,91746.88
2019-01-20T14:25:42.594Z,91749.89
2019-01-20T14:28:14.013Z,91742.28
2019-01-20T14:30:45.534Z,91745.59
2019-01-20T14:33:16.549Z,91749.48
2019-01-20T14:35:47.677Z,91752.13
2019-01-20T14:38:19.091Z,91749.04
2019-01-20T14:40:50.487Z,91748.69
2019-01-20T14:43:21.909Z,91755.70
2019-01-20T14:45:53.626Z,91750.11
2019-01-20T14:48:24.645Z,91746.68
2019-01-20T14:50:55.983Z,91747.77
2019-01-20T14:53:27.341Z,91746.57
2019-01-20T14:55:58.357Z,91750.38
2019-01-20T14:58:30.344Z,91749.17
2019-01-20T15:01:02.905Z,91749.09
2019-01-20T15:03:34.015Z,91751.66
2019-01-20T15:06:05.054Z,91756.68
2019-01-20T15:08:36.064Z,91756.06
2019-01-20T15:11:08.690Z,91758.14
2019-01-20T15:13:39.904Z,91765.88
2019-01-20T15:16:10.970Z,91756.77
2019-01-20T15:18:42.012Z,91756.25
2019-01-20T15:21:13.205Z,91755.88
2019-01-20T15:23:44.217Z,91762.16
2019-01-20T15:26:15.627Z,91763.10
2019-01-20T15:28:47.302Z,91761.87
2019-01-20T15:31:18.324Z,91767.08
2019-01-20T15:33:51.632Z,91769.64
2019-01-20T15:36:23.135Z,91763.62
2019-01-20T15:38:54.151Z,91767.05
2019-01-20T15:41:25.966Z,91762.62
2019-01-20T15:43:57.390Z,91761.28
2019-01-20T15:46:29.693Z,91752.19
2019-01-20T15:49:00.727Z,91755.06
2019-01-20T15:51:33.131Z,91764.06
2019-01-20T15:54:04.155Z,91767.13
2019-01-20T15:56:35.550Z,91771.66
2019-01-20T15:59:07.007Z,91776.91
2019-01-20T16:01:38.034Z,91766.63
2019-01-20T16:04:14.796Z,91759.73
2019-01-20T16:06:46.706Z,91766.08
2019-01-20T16:09:19.386Z,91770.16
2019-01-20T16:11:50.591Z,91758.53
2019-01-20T16:14:22.015Z,91758.36
2019-01-20T16:16:53.860Z,91758.66
2019-01-20T16:19:25.474Z,91763.34
2019-01-20T16:21:56.847Z,91765.66
2019-01-20T16:24:29.757Z,91769.24
2019-01-20T16:27:01.173Z,91775.48
2019-01-20T16:29:32.834Z,91771.31
2019-01-20T16:32:03.864Z,91784.87
2019-01-20T16:34:34.917Z,91779.95
2019-01-20T16:37:06.411Z,91789.18
2019-01-20T16:39:38.172Z,91788.27
2019-01-20T16:42:13.003Z,91792.00
2019-01-20T16:44:45.074Z,91791.45
2019-01-20T16:47:16.996Z,91788.93
2019-01-20T16:49:48.063Z,91792.34
2019-01-20T16:52:20.970Z,91795.49
2019-01-20T16:54:52.395Z,91789.94
2019-01-20T16:57:23.467Z,91784.83
2019-01-20T16:59:54.467Z,91793.20
2019-01-20T17:02:25.541Z,91801.34
2019-01-20T17:04:56.919Z,91801.86
2019-01-20T17:07:28.652Z,91800.82
2019-01-20T17:09:59.823Z,91803.81
2019-01-20T17:12:31.255Z,91798.83
2019-01-20T17:15:03.762Z,91800.55
2019-01-20T17:17:35.250Z,91801.27
2019-01-20T17:20:07.950Z,91807.06
2019-01-20T17:22:39.070Z,91805.98
2019-01-20T17:25:10.828Z,91812.27
2019-01-20T17:27:42.255Z,91809.45
2019-01-20T17:30:18.572Z,91813.95
2019-01-20T17:32:49.586Z,91810.98
2019-01-20T17:35:21.034Z,91817.22
2019-01-20T17:37:52.551Z,91818.02
2019-01-20T17:40:26.052Z,91820.65
2019-01-20T17:42:57.870Z,91816.70
2019-01-20T17:48:59.081Z,91812.18
2019-01-20T17:51:30.844Z,91820.67
2019-01-20T17:54:03.614Z,91818.03
2019-01-20T17:56:35.329Z,91822.30
2019-01-20T17:59:06.838Z,91818.62
2019-01-20T18:01:38.022Z,91813.93
2019-01-20T18:04:09.151Z,91812.70
2019-01-20T18:07:10.603Z,91813.91
2019-01-20T18:09:42.268Z,91820.59
2019-01-20T18:12:13.776Z,91831.70
2019-01-20T18:14:46.265Z,91830.88
2019-01-20T18:17:17.376Z,91840.23
2019-01-20T18:19:48.828Z,91838.63
2019-01-20T18:22:19.857Z,91834.12
2019-01-20T18:24:51.880Z,91835.59
2019-01-20T18:31:00.811Z,91843.41
2019-01-20T18:33:32.227Z,91842.37
2019-01-20T18:36:03.285Z,91845.91
2019-01-20T18:38:34.345Z,91837.63
2019-01-20T18:41:14.470Z,91840.17
2019-01-20T18:43:46.043Z,91840.43
2019-01-20T18:46:17.509Z,91843.80
2019-01-20T18:48:49.831Z,91844.34
2019-01-20T18:51:20.997Z,91844.95
2019-01-20T18:53:52.015Z,91844.74
2019-01-20T18:56:25.289Z,91843.09
2019-01-20T18:58:57.029Z,91848.11
2019-01-20T19:01:28.421Z,91850.45
2019-01-20T19:04:01.377Z,91851.06
2019-01-20T19:06:33.136Z,91848.81
2019-01-20T19:09:07.844Z,91849.02
2019-01-20T19:11:39.366Z,91846.78
2019-01-20T19:14:10.712Z,91836.59
2019-01-20T19:16:42.217Z,91843.93
2019-01-20T19:19:14.334Z,91851.38
2019-01-20T19:21:45.686Z,91855.14
2019-01-20T19:24:20.780Z,91856.77
2019-01-20T19:26:52.302Z,91855.75
2019-01-20T19:29:53.065Z,91860.34
2019-01-20T19:32:24.259Z,91853.92
2019-01-20T19:34:56.587Z,91856.88
2019-01-20T19:37:28.078Z,91851.06
2019-01-20T19:39:59.541Z,91861.36
2019-01-20T19:42:30.599Z,91865.03
2019-01-20T19:45:02.049Z,91859.33
2019-01-20T19:47:33.108Z,91860.65
2019-01-20T19:50:11.858Z,91861.88
2019-01-20T19:52:43.357Z,91857.58
2019-01-20T19:55:24.031Z,91851.67
2019-01-20T19:57:55.416Z,91862.23
2019-01-20T20:00:27.790Z,91860.23
2019-01-20T20:02:59.951Z,91854.03
2019-01-20T20:05:37.327Z,91864.41
2019-01-20T20:08:08.438Z,91865.34
2019-01-20T20:10:40.075Z,91866.48
2019-01-20T20:13:11.983Z,91868.28
2019-01-20T20:15:43.071Z,91865.86
2019-01-20T20:18:14.620Z,91866.76
2019-01-20T20:20:45.725Z,91873.39
2019-01-20T20:23:21.926Z,91872.17
2019-01-20T20:25:52.167Z,91874.52
2019-01-20T20:28:23.653Z,91872.78
2019-01-20T20:30:55.049Z,91887.61
2019-01-20T20:33:26.142Z,91892.09
2019-01-20T20:35:57.666Z,91891.84
2019-01-20T20:38:28.875Z,91896.53
2019-01-20T20:41:02.926Z,91897.13
2019-01-20T20:43:34.679Z,91896.95
2019-01-20T20:46:06.746Z,91905.91
2019-01-20T20:48:37.832Z,91900.72
2019-01-20T20:51:11.036Z,91907.95
2019-01-20T20:53:42.640Z,91906.54
2019-01-20T20:56:13.747Z,91907.86
2019-01-20T20:59:03.152Z,91907.62
2019-01-20T21:01:52.311Z,91907.00
2019-01-20T21:04:42.475Z,91908.66
2019-01-20T21:07:32.184Z,91910.62
2019-01-20T21:10:21.603Z,91923.64
2019-01-20T21:13:14.191Z,91924.29
2019-01-20T21:16:04.959Z,91930.13
2019-01-20T21:18:57.847Z,91933.08
2019-01-20T21:21:47.887Z,91924.08
2019-01-20T21:24:37.389Z,91933.38
2019-01-20T21:27:29.280Z,91929.20
2019-01-20T21:30:21.231Z,91928.31
2019-01-20T21:33:12.117Z,91930.36
2019-01-20T21:36:13.786Z,91931.63
2019-01-20T21:39:03.520Z,91936.04
2019-01-20T21:41:53.909Z,91924.02
2019-01-20T21:44:43.342Z,91929.03
2019-01-20T21:47:32.777Z,91935.17
2019-01-20T21:50:24.185Z,91934.46
2019-01-20T21:53:13.657Z,91935.58
2019-01-20T21:56:03.890Z,91937.20
2019-01-20T21:58:52.890Z,91934.16
2019-01-20T22:01:42.326Z,91930.48
2019-01-20T22:04:31.806Z,91940.67
2019-01-20T22:07:21.995Z,91939.45
2019-01-20T22:10:15.425Z,91934.06
2019-01-20T22:13:06.229Z,91939.27
2019-01-20T22:15:56.212Z,91934.38
2019-01-20T22:18:46.064Z,91932.23
2019-01-20T22:21:35.857Z,91926.81
2019-01-20T22:24:25.669Z,91931.11
2019-01-20T22:27:15.825Z,91925.00
2019-01-20T22:30:09.230Z,91920.41
2019-01-20T22:32:58.600Z,91924.36
2019-01-20T22:35:49.072Z,91926.81
2019-01-20T22:38:38.102Z,91923.05
2019-01-20T22:41:27.545Z,91928.05
2019-01-20T22:44:16.339Z,91924.57
2019-01-20T22:47:05.965Z,91925.61
2019-01-20T22:49:55.663Z,91923.36
2019-01-20T22:52:45.101Z,91920.39
2019-01-20T22:55:37.952Z,91914.48
2019-01-20T22:58:27.994Z,91916.61
2019-01-20T23:01:22.123Z,91918.36
2019-01-20T23:04:11.461Z,91918.25
2019-01-20T23:07:01.249Z,91909.19
2019-01-20T23:09:50.620Z,91906.44
2019-01-20T23:12:40.341Z,91905.61
2019-01-20T23:15:30.687Z,91902.05
2019-01-20T23:19:00.585Z,91903.16
2019-01-20T23:21:50.038Z,91904.05
2019-01-20T23:24:39.317Z,91904.86
2019-01-20T23:27:30.341Z,91900.27
2019-01-20T23:30:19.890Z,91901.78
2019-01-20T23:33:09.315Z,91903.94
2019-01-20T23:35:58.765Z,91898.55
2019-01-20T23:38:47.916Z,91898.78
2019-01-20T23:41:37.447Z,91903.69
2019-01-20T23:44:27.109Z,91900.58
2019-01-20T23:47:16.629Z,91895.33
2019-01-20T23:50:06.967Z,91896.67
2019-01-20T23:52:57.063Z,91895.85
2019-01-20T23:55:46.697Z,91894.23
2019-01-20T23:58:36.388Z,91896.91
